Decoded Metar for YMAV (AVALON in AUSTRALIA) (IATA:AVV) | Meteo·Mobile Aviation Weather
aviador You're here:

YMAV Decoded Metar

AVALON in AUSTRALIA
Report Time2019-01-20 11:00:00
UTC Time2019-01-20 11:15:19
Flight Rules vfr VFR
Wind170° at 08 kt
W.Decomp.*RWY 18: 7.5 kt HW 2.9 kt LCW
W.Rank170° ranks 8
Current wind is below 170° avg. (9.1)
Visibility9999 m
Phenomena:N/A
Clouds:Scattered 014 Hf
Expected CloudBase > 1,200 ft AGL from Temp-Dew spread
CeilingNone
Temp18°C (ISA +3)
Dew Point15°C (83% RH)
AAT16.8°C
QNH1020 hPa
Density Alt374 ft
Elevation26 ft
Report Wrong Elevation
Raw Report
YMAV 201100Z AUTO 17008KT 9999 // SCT014 18/15 Q1020=

Extra information for YMAV:More info

Metar Taf Metar & Taf Last 4 Metars F.Rules Stats Wind Profile Meteogram Temp Stats Airport Information Weather charts Add Link Nearby VenuesMetar ALERT Operation Metar Decoded Social comments